createdAt,value
2022-09-27T00:01:10.499Z,25.00
2022-09-27T00:03:40.598Z,24.08
2022-09-27T00:06:30.099Z,22.77
2022-09-27T00:08:59.640Z,22.63
2022-09-27T00:11:39.926Z,24.17
2022-09-27T00:14:08.806Z,22.15
2022-09-27T00:16:39.336Z,22.13
2022-09-27T00:19:12.013Z,21.98
2022-09-27T00:21:40.200Z,21.95
2022-09-27T00:24:07.642Z,19.65
2022-09-27T00:26:34.919Z,21.35
2022-09-27T00:29:02.393Z,24.10
2022-09-27T00:31:31.687Z,22.08
2022-09-27T00:34:03.725Z,22.13
2022-09-27T00:36:33.413Z,26.67
2022-09-27T00:39:01.866Z,25.88
2022-09-27T00:41:33.810Z,25.85
2022-09-27T00:44:25.624Z,25.17
2022-09-27T00:47:08.201Z,29.48
2022-09-27T00:50:00.615Z,33.15
2022-09-27T00:53:20.220Z,36.45
2022-09-27T00:56:02.446Z,37.70
2022-09-27T00:58:37.175Z,30.55
2022-09-27T01:01:10.745Z,29.25
2022-09-27T01:04:02.042Z,25.13
2022-09-27T01:06:30.092Z,24.58
2022-09-27T01:08:57.309Z,22.05
2022-09-27T01:11:49.593Z,25.75
2022-09-27T01:14:41.622Z,25.45
2022-09-27T01:17:59.574Z,24.15
2022-09-27T01:21:03.179Z,29.80
2022-09-27T01:23:52.306Z,25.98
2022-09-27T01:26:47.766Z,24.45
2022-09-27T01:29:38.131Z,22.38
2022-09-27T01:32:27.694Z,19.08
2022-09-27T01:35:19.867Z,16.63
2022-09-27T01:38:17.827Z,17.25
2022-09-27T01:40:54.303Z,20.20
2022-09-27T01:43:35.178Z,18.95
2022-09-27T01:46:15.402Z,15.75
2022-09-27T01:48:48.594Z,19.33
2022-09-27T01:51:42.785Z,16.13
2022-09-27T01:54:19.162Z,18.35
2022-09-27T01:56:55.281Z,20.27
2022-09-27T01:59:31.901Z,18.27
2022-09-27T02:02:07.404Z,17.75
2022-09-27T02:04:40.916Z,18.65
2022-09-27T02:07:20.539Z,19.88
2022-09-27T02:10:02.247Z,21.35
2022-09-27T02:12:40.089Z,18.90
2022-09-27T02:15:12.642Z,19.13
2022-09-27T02:17:58.438Z,15.27
2022-09-27T02:20:38.233Z,16.05
2022-09-27T02:23:34.064Z,16.25
2022-09-27T02:26:20.506Z,14.57
2022-09-27T02:29:12.956Z,16.08
2022-09-27T02:31:40.718Z,15.45
2022-09-27T02:34:17.290Z,13.00
2022-09-27T02:36:45.053Z,12.68
2022-09-27T02:39:12.517Z,13.13
2022-09-27T02:41:39.766Z,15.30
2022-09-27T02:44:13.718Z,16.17
2022-09-27T02:47:13.416Z,16.92
2022-09-27T02:50:17.188Z,20.25
2022-09-27T02:52:58.591Z,19.90
2022-09-27T02:56:07.276Z,20.75
2022-09-27T02:59:17.990Z,21.20
2022-09-27T03:02:26.715Z,19.52
2022-09-27T03:05:02.930Z,18.13
2022-09-27T03:07:31.011Z,16.80
2022-09-27T03:09:58.575Z,18.15
2022-09-27T03:12:26.372Z,19.35
2022-09-27T03:14:58.627Z,17.95
2022-09-27T03:17:26.703Z,19.80
2022-09-27T03:19:55.358Z,16.85
2022-09-27T03:22:22.750Z,17.95
2022-09-27T03:24:49.991Z,15.00
2022-09-27T03:27:17.309Z,14.07
2022-09-27T03:29:44.830Z,17.70
2022-09-27T03:32:12.047Z,16.80
2022-09-27T03:34:39.308Z,21.75
2022-09-27T03:37:07.214Z,19.13
2022-09-27T03:39:34.947Z,18.33
2022-09-27T03:42:02.243Z,17.13
2022-09-27T03:44:29.703Z,18.33
2022-09-27T03:46:57.451Z,18.90
2022-09-27T03:49:24.880Z,17.52
2022-09-27T03:51:52.339Z,17.13
2022-09-27T03:54:19.556Z,15.95
2022-09-27T03:56:46.773Z,16.48
2022-09-27T03:59:14.880Z,16.10
2022-09-27T04:01:44.697Z,15.10
2022-09-27T04:04:11.991Z,13.35
2022-09-27T04:06:39.659Z,12.30
2022-09-27T04:09:06.879Z,15.52
2022-09-27T04:11:36.751Z,11.68
2022-09-27T04:14:05.752Z,13.32
2022-09-27T04:16:33.960Z,11.93
2022-09-27T04:19:02.326Z,12.57
2022-09-27T04:21:30.108Z,12.18
2022-09-27T04:23:57.420Z,12.70
2022-09-27T04:26:26.351Z,12.98
2022-09-27T04:28:54.886Z,12.60
2022-09-27T04:31:22.786Z,11.48
2022-09-27T04:33:50.105Z,12.45
2022-09-27T04:36:29.483Z,11.48
2022-09-27T04:39:02.579Z,12.23
2022-09-27T04:41:30.859Z,12.75
2022-09-27T04:44:01.291Z,12.60
2022-09-27T04:46:31.816Z,12.25
2022-09-27T04:49:03.109Z,12.63
2022-09-27T04:51:30.399Z,12.77
2022-09-27T04:53:58.338Z,13.50
2022-09-27T04:56:26.382Z,9.88
2022-09-27T04:58:54.065Z,10.70
2022-09-27T05:01:21.663Z,8.98
2022-09-27T05:03:49.382Z,12.25
2022-09-27T05:06:16.576Z,11.05
2022-09-27T05:08:43.726Z,10.18
2022-09-27T05:11:14.161Z,8.18
2022-09-27T05:13:41.326Z,11.05
2022-09-27T05:16:08.793Z,10.32
2022-09-27T05:18:37.252Z,11.00
2022-09-27T05:21:04.609Z,10.88
2022-09-27T05:23:31.904Z,11.60
2022-09-27T05:26:04.651Z,16.45
2022-09-27T05:28:32.411Z,18.40
2022-09-27T05:30:59.668Z,12.38
2022-09-27T05:33:27.895Z,10.85
2022-09-27T05:35:57.736Z,9.27
2022-09-27T05:38:26.232Z,9.80
2022-09-27T05:40:53.831Z,9.73
2022-09-27T05:43:21.741Z,11.13
2022-09-27T05:45:49.198Z,10.10
2022-09-27T05:48:16.985Z,9.73
2022-09-27T05:50:44.897Z,10.18
2022-09-27T05:53:13.608Z,12.55
2022-09-27T05:55:41.011Z,22.10
2022-09-27T05:58:11.480Z,11.13
2022-09-27T06:00:39.426Z,11.43
2022-09-27T06:03:08.037Z,9.90
2022-09-27T06:05:38.546Z,9.98
2022-09-27T06:08:13.203Z,9.75
2022-09-27T06:10:41.834Z,11.18
2022-09-27T06:13:14.244Z,10.52
2022-09-27T06:15:45.402Z,10.60
2022-09-27T06:18:18.739Z,9.82
2022-09-27T06:20:46.326Z,10.07
2022-09-27T06:23:23.679Z,10.07
2022-09-27T06:25:53.251Z,9.93
2022-09-27T06:28:22.136Z,10.75
2022-09-27T06:30:50.847Z,10.73
2022-09-27T06:33:20.700Z,9.93
2022-09-27T06:35:50.113Z,11.02
2022-09-27T06:38:18.788Z,9.45
2022-09-27T06:40:47.120Z,9.10
2022-09-27T06:43:17.601Z,9.00
2022-09-27T06:45:44.927Z,8.18
2022-09-27T06:48:16.157Z,9.48
2022-09-27T06:50:46.020Z,8.75
2022-09-27T06:53:17.076Z,7.97
2022-09-27T06:55:44.476Z,9.57
2022-09-27T06:58:31.073Z,9.07
2022-09-27T07:00:58.971Z,8.70
2022-09-27T07:03:38.883Z,8.10
2022-09-27T07:06:17.731Z,8.65
2022-09-27T07:08:45.070Z,7.05
2022-09-27T07:11:12.480Z,7.85
2022-09-27T07:13:42.993Z,6.90
2022-09-27T07:16:14.756Z,7.95
2022-09-27T07:18:43.510Z,21.50
2022-09-27T07:21:12.697Z,15.00
2022-09-27T07:23:40.190Z,12.63
2022-09-27T07:26:10.549Z,7.05
2022-09-27T07:28:38.052Z,6.70
2022-09-27T07:31:06.802Z,6.22
2022-09-27T07:33:34.814Z,6.55
2022-09-27T07:36:09.326Z,6.47
2022-09-27T07:38:37.502Z,5.82
2022-09-27T07:41:13.361Z,4.93
2022-09-27T07:43:45.150Z,4.90
2022-09-27T07:46:13.723Z,4.45
2022-09-27T07:48:41.377Z,5.00
2022-09-27T07:51:15.667Z,5.55
2022-09-27T07:53:43.024Z,6.05
2022-09-27T07:56:10.437Z,5.60
2022-09-27T07:58:37.700Z,6.43
2022-09-27T08:01:04.966Z,5.40
2022-09-27T08:03:32.584Z,5.00
2022-09-27T08:06:04.448Z,5.40
2022-09-27T08:08:32.138Z,5.13
2022-09-27T08:10:59.523Z,5.68
2022-09-27T08:13:26.783Z,5.20
2022-09-27T08:15:54.033Z,4.60
2022-09-27T08:18:22.258Z,4.80
2022-09-27T08:20:49.506Z,4.93
2022-09-27T08:23:16.888Z,4.10
2022-09-27T08:25:44.528Z,6.03
2022-09-27T08:28:11.833Z,18.42
2022-09-27T08:30:39.247Z,8.50
2022-09-27T08:33:06.883Z,11.23
2022-09-27T08:35:34.305Z,5.03
2022-09-27T08:38:05.119Z,5.22
2022-09-27T08:40:43.762Z,5.82
2022-09-27T08:43:38.074Z,5.43
2022-09-27T08:46:33.237Z,5.40
2022-09-27T08:49:13.700Z,5.07
2022-09-27T08:51:46.425Z,5.28
2022-09-27T08:54:30.238Z,5.68
2022-09-27T08:57:12.813Z,4.70
2022-09-27T08:59:52.732Z,4.93
2022-09-27T09:02:27.495Z,6.00
2022-09-27T09:05:07.282Z,5.70
2022-09-27T09:08:21.843Z,5.30
2022-09-27T09:11:25.109Z,4.97
2022-09-27T09:14:01.623Z,4.60
2022-09-27T09:17:09.121Z,4.63
2022-09-27T09:20:16.986Z,4.10
2022-09-27T09:23:10.910Z,4.07
2022-09-27T09:26:08.074Z,4.00
2022-09-27T09:29:06.970Z,3.60
2022-09-27T09:31:41.304Z,3.40
2022-09-27T09:34:41.506Z,3.45
2022-09-27T09:37:24.851Z,3.33
2022-09-27T09:40:04.231Z,3.28
2022-09-27T09:43:01.747Z,3.40
2022-09-27T09:45:35.894Z,3.78
2022-09-27T09:48:19.474Z,3.10
2022-09-27T09:50:56.617Z,3.55
2022-09-27T09:53:42.746Z,2.60
2022-09-27T09:56:33.188Z,3.15
2022-09-27T09:59:11.200Z,3.15
2022-09-27T10:01:44.996Z,2.90
2022-09-27T10:04:32.867Z,3.08
2022-09-27T10:07:01.685Z,3.30
2022-09-27T10:09:29.702Z,3.78
2022-09-27T10:11:57.334Z,3.38
2022-09-27T10:14:28.293Z,4.18
2022-09-27T10:17:06.549Z,3.05
2022-09-27T10:19:38.668Z,3.70
2022-09-27T10:22:16.069Z,3.47
2022-09-27T10:24:59.779Z,3.50
2022-09-27T10:27:28.376Z,3.13
2022-09-27T10:29:59.840Z,3.10
2022-09-27T10:32:35.855Z,2.70
2022-09-27T10:35:35.237Z,3.28
2022-09-27T10:38:32.124Z,3.65
2022-09-27T10:41:18.162Z,3.45
2022-09-27T10:43:45.448Z,3.45
2022-09-27T10:46:31.772Z,2.70
2022-09-27T10:49:31.314Z,3.13
2022-09-27T10:52:06.533Z,3.47
2022-09-27T10:54:39.773Z,3.97
2022-09-27T10:57:21.545Z,3.80
2022-09-27T10:59:57.900Z,2.90
2022-09-27T11:02:37.906Z,2.97
2022-09-27T11:05:29.813Z,3.50
2022-09-27T11:08:03.124Z,3.55
2022-09-27T11:10:37.727Z,3.13
2022-09-27T11:13:18.397Z,3.10
2022-09-27T11:16:29.993Z,2.65
2022-09-27T11:19:57.161Z,2.70
2022-09-27T11:22:55.077Z,2.70
2022-09-27T11:25:49.742Z,3.28
2022-09-27T11:28:49.001Z,2.88
2022-09-27T11:31:40.340Z,2.90
2022-09-27T11:34:41.551Z,2.60
2022-09-27T11:37:36.969Z,3.03
2022-09-27T11:40:27.251Z,2.70
2022-09-27T11:43:16.497Z,2.95
2022-09-27T11:46:38.726Z,2.97
2022-09-27T11:49:28.286Z,3.33
2022-09-27T11:52:51.546Z,2.92
2022-09-27T11:55:52.656Z,3.20
2022-09-27T11:58:44.817Z,2.67
2022-09-27T12:01:55.881Z,2.97
2022-09-27T12:05:01.968Z,3.05
2022-09-27T12:08:00.766Z,3.33
2022-09-27T12:10:28.034Z,3.42
2022-09-27T12:13:04.837Z,2.90
2022-09-27T12:15:41.113Z,3.13
2022-09-27T12:18:31.705Z,3.70
2022-09-27T12:21:03.309Z,3.42
2022-09-27T12:23:48.950Z,3.63
2022-09-27T12:26:25.564Z,3.72
2022-09-27T12:28:58.213Z,3.33
2022-09-27T12:31:47.247Z,4.78
2022-09-27T12:34:39.793Z,4.47
2022-09-27T12:37:19.937Z,4.97
2022-09-27T12:39:55.757Z,4.25
2022-09-27T12:42:46.716Z,3.75
2022-09-27T12:45:16.334Z,5.20
2022-09-27T12:48:25.708Z,3.75
2022-09-27T12:51:12.026Z,4.80
2022-09-27T12:54:13.139Z,4.90
2022-09-27T12:57:18.296Z,5.35
2022-09-27T13:00:04.834Z,5.65
2022-09-27T13:03:14.853Z,7.78
2022-09-27T13:06:20.693Z,5.30
2022-09-27T13:09:18.070Z,4.78
2022-09-27T13:11:56.330Z,4.15
2022-09-27T13:14:30.321Z,3.65
2022-09-27T13:17:00.729Z,4.53
2022-09-27T13:19:42.662Z,3.85
2022-09-27T13:22:27.017Z,3.75
2022-09-27T13:24:55.448Z,4.22
2022-09-27T13:27:23.236Z,5.68
2022-09-27T13:29:51.806Z,4.45
2022-09-27T13:32:21.454Z,4.55
2022-09-27T13:34:56.734Z,4.28
2022-09-27T13:37:45.779Z,3.53
2022-09-27T13:40:16.416Z,4.00
2022-09-27T13:42:49.461Z,3.90
2022-09-27T13:45:28.313Z,4.20
2022-09-27T13:47:59.477Z,6.82
2022-09-27T13:50:56.830Z,6.32
2022-09-27T13:53:40.114Z,6.10
2022-09-27T13:56:36.433Z,6.38
2022-09-27T13:59:10.345Z,6.82
2022-09-27T14:01:51.525Z,5.40
2022-09-27T14:04:27.768Z,4.68
2022-09-27T14:07:02.861Z,5.60
2022-09-27T14:09:40.459Z,5.75
2022-09-27T14:12:19.426Z,5.75
2022-09-27T14:14:50.072Z,5.25
2022-09-27T14:17:17.861Z,5.38
2022-09-27T14:19:46.470Z,4.15
2022-09-27T14:22:21.696Z,4.07
2022-09-27T14:24:55.440Z,2.78
2022-09-27T14:27:36.130Z,2.25
2022-09-27T14:30:29.209Z,3.80
2022-09-27T14:33:01.762Z,4.88
2022-09-27T14:35:51.045Z,2.75
2022-09-27T14:38:38.768Z,2.22
2022-09-27T14:41:09.071Z,2.13
2022-09-27T14:43:44.550Z,2.08
2022-09-27T14:46:34.196Z,2.13
2022-09-27T14:49:23.749Z,3.85
2022-09-27T14:51:56.315Z,3.20
2022-09-27T14:54:31.518Z,2.40
2022-09-27T14:57:00.376Z,2.92
2022-09-27T14:59:34.911Z,2.95
2022-09-27T15:02:17.672Z,4.25
2022-09-27T15:04:49.136Z,4.10
2022-09-27T15:07:17.267Z,4.50
2022-09-27T15:09:45.850Z,5.13
2022-09-27T15:12:24.960Z,4.82
2022-09-27T15:14:55.530Z,5.13
2022-09-27T15:17:22.952Z,12.30
2022-09-27T15:20:18.783Z,5.47
2022-09-27T15:22:47.493Z,4.47
2022-09-27T15:25:25.154Z,4.78
2022-09-27T15:27:56.560Z,5.00
2022-09-27T15:30:35.726Z,5.13
2022-09-27T15:33:04.623Z,5.68
2022-09-27T15:35:36.011Z,7.65
2022-09-27T15:38:33.324Z,7.45
2022-09-27T15:41:09.757Z,7.40
2022-09-27T15:43:50.221Z,7.30
2022-09-27T15:46:42.989Z,9.00
2022-09-27T15:49:31.506Z,10.32
2022-09-27T15:52:02.612Z,10.65
2022-09-27T15:54:36.468Z,10.95
2022-09-27T15:57:06.181Z,10.40
2022-09-27T15:59:36.478Z,9.95
2022-09-27T16:02:16.566Z,10.55
2022-09-27T16:04:45.024Z,9.05
2022-09-27T16:07:17.883Z,10.35
2022-09-27T16:09:46.909Z,11.43
2022-09-27T16:12:14.103Z,11.73
2022-09-27T16:14:41.313Z,11.93
2022-09-27T16:17:11.031Z,14.23
2022-09-27T16:19:39.466Z,13.85
2022-09-27T16:22:06.957Z,15.10
2022-09-27T16:24:40.505Z,14.40
2022-09-27T16:27:07.852Z,16.20
2022-09-27T16:29:35.127Z,14.80
2022-09-27T16:32:02.568Z,14.57
2022-09-27T16:34:30.016Z,15.10
2022-09-27T16:36:59.585Z,12.63
2022-09-27T16:39:29.930Z,13.52
2022-09-27T16:41:57.137Z,12.52
2022-09-27T16:44:24.451Z,12.68
2022-09-27T16:46:52.027Z,13.23
2022-09-27T16:49:37.629Z,14.65
2022-09-27T16:52:05.030Z,14.43
2022-09-27T16:54:32.438Z,16.05
2022-09-27T16:57:00.217Z,15.48
2022-09-27T16:59:28.078Z,14.45
2022-09-27T17:01:58.423Z,14.93
2022-09-27T17:04:28.428Z,14.15
2022-09-27T17:06:59.882Z,13.38
2022-09-27T17:09:27.453Z,13.20
2022-09-27T17:11:56.435Z,15.07
2022-09-27T17:14:24.000Z,14.13
2022-09-27T17:16:52.085Z,14.77
2022-09-27T17:19:19.853Z,14.60
2022-09-27T17:21:47.716Z,13.70
2022-09-27T17:24:15.517Z,14.15
2022-09-27T17:26:44.657Z,17.38
2022-09-27T17:29:13.543Z,19.33
2022-09-27T17:31:42.836Z,16.45
2022-09-27T17:34:13.715Z,16.58
2022-09-27T17:36:48.171Z,17.20
2022-09-27T17:39:19.351Z,16.48
2022-09-27T17:41:48.994Z,25.00
2022-09-27T17:44:21.290Z,20.05
2022-09-27T17:47:08.834Z,18.63
2022-09-27T17:49:54.827Z,18.98
2022-09-27T17:52:23.798Z,17.27
2022-09-27T17:54:54.489Z,18.17
2022-09-27T17:57:22.571Z,20.63
2022-09-27T17:59:51.160Z,18.98
2022-09-27T18:02:18.753Z,21.88
2022-09-27T18:04:46.342Z,19.27
2022-09-27T18:07:14.110Z,18.80
2022-09-27T18:09:42.075Z,22.38
2022-09-27T18:12:10.151Z,21.42
2022-09-27T18:14:37.522Z,22.58
2022-09-27T18:17:05.100Z,21.67
2022-09-27T18:19:32.413Z,25.08
2022-09-27T18:22:00.943Z,21.52
2022-09-27T18:24:28.716Z,22.23
2022-09-27T18:26:57.422Z,20.45
2022-09-27T18:29:24.949Z,24.73
2022-09-27T18:31:52.803Z,20.85
2022-09-27T18:34:20.389Z,18.17
2022-09-27T18:36:48.151Z,16.80
2022-09-27T18:39:19.812Z,16.60
2022-09-27T18:41:51.223Z,16.02
2022-09-27T18:44:19.828Z,15.73
2022-09-27T18:46:48.031Z,15.10
2022-09-27T18:49:17.639Z,13.55
2022-09-27T18:51:47.294Z,15.30
2022-09-27T18:54:19.424Z,13.98
2022-09-27T18:56:49.755Z,16.88
2022-09-27T18:59:18.187Z,14.82
2022-09-27T19:01:47.137Z,15.02
2022-09-27T19:04:27.086Z,13.23
2022-09-27T19:06:57.091Z,15.77
2022-09-27T19:09:27.052Z,14.25
2022-09-27T19:11:54.849Z,19.25
2022-09-27T19:14:23.812Z,14.20
2022-09-27T19:16:51.919Z,15.00
2022-09-27T19:19:20.572Z,12.10
2022-09-27T19:21:49.222Z,12.55
2022-09-27T19:24:19.060Z,11.25
2022-09-27T19:26:46.678Z,11.77
2022-09-27T19:29:14.992Z,11.90
2022-09-27T19:31:42.992Z,12.70
2022-09-27T19:34:11.440Z,11.85
2022-09-27T19:36:38.863Z,11.00
2022-09-27T19:39:06.714Z,12.63
2022-09-27T19:41:34.123Z,11.02
2022-09-27T19:44:01.951Z,10.15
2022-09-27T19:46:29.634Z,11.73
2022-09-27T19:48:57.125Z,11.98
2022-09-27T19:51:27.169Z,10.15
2022-09-27T19:53:55.604Z,10.52
2022-09-27T19:56:24.780Z,11.07
2022-09-27T19:58:52.612Z,9.63
2022-09-27T20:01:23.586Z,12.25
2022-09-27T20:03:55.822Z,9.52
2022-09-27T20:06:23.748Z,9.40
2022-09-27T20:08:52.696Z,10.05
2022-09-27T20:11:23.431Z,9.98
2022-09-27T20:13:53.223Z,11.77
2022-09-27T20:16:24.540Z,10.25
2022-09-27T20:18:58.171Z,12.60
2022-09-27T20:21:30.061Z,10.30
2022-09-27T20:23:58.307Z,11.18
2022-09-27T20:26:28.568Z,10.40
2022-09-27T20:28:59.254Z,11.80
2022-09-27T20:32:02.890Z,18.30
2022-09-27T20:34:28.903Z,16.05
2022-09-27T20:36:56.167Z,13.55
2022-09-27T20:39:24.411Z,12.07
2022-09-27T20:41:54.872Z,12.98
2022-09-27T20:44:22.227Z,13.93
2022-09-27T20:46:49.555Z,13.20
2022-09-27T20:49:19.447Z,13.85
2022-09-27T20:51:51.551Z,13.68
2022-09-27T20:54:19.166Z,15.30
2022-09-27T20:56:48.722Z,14.13
2022-09-27T20:59:20.402Z,13.70
2022-09-27T21:01:51.401Z,13.60
2022-09-27T21:04:21.524Z,14.60
2022-09-27T21:06:49.231Z,14.02
2022-09-27T21:09:20.027Z,14.90
2022-09-27T21:11:49.293Z,15.45
2022-09-27T21:14:16.863Z,16.80
2022-09-27T21:16:44.576Z,17.73
2022-09-27T21:19:12.037Z,17.33
2022-09-27T21:21:39.468Z,16.85
2022-09-27T21:24:07.026Z,15.82
2022-09-27T21:26:35.162Z,16.27
2022-09-27T21:29:09.015Z,17.88
2022-09-27T21:31:38.167Z,17.45
2022-09-27T21:34:06.591Z,18.45
2022-09-27T21:36:38.807Z,17.48
2022-09-27T21:39:09.074Z,19.05
2022-09-27T21:41:39.085Z,20.73
2022-09-27T21:44:10.653Z,17.65
2022-09-27T21:46:41.808Z,17.52
2022-09-27T21:49:11.204Z,17.50
2022-09-27T21:51:42.448Z,15.48
2022-09-27T21:54:14.767Z,14.00
2022-09-27T21:56:44.573Z,13.75
2022-09-27T21:59:15.643Z,14.57
2022-09-27T22:01:46.088Z,14.05
2022-09-27T22:04:19.634Z,13.32
2022-09-27T22:06:47.456Z,14.30
2022-09-27T22:09:17.353Z,13.70
2022-09-27T22:11:47.636Z,13.88
2022-09-27T22:14:18.943Z,15.82
2022-09-27T22:16:47.798Z,14.02
2022-09-27T22:19:16.542Z,14.32
2022-09-27T22:21:44.150Z,14.00
2022-09-27T22:24:17.972Z,13.27
2022-09-27T22:26:53.444Z,13.73
2022-09-27T22:29:21.326Z,14.35
2022-09-27T22:31:48.921Z,13.85
2022-09-27T22:34:20.704Z,13.02
2022-09-27T22:36:47.975Z,15.18
2022-09-27T22:39:15.488Z,14.02
2022-09-27T22:41:42.700Z,13.60
2022-09-27T22:44:09.895Z,13.20
2022-09-27T22:46:37.394Z,15.55
2022-09-27T22:49:04.683Z,15.23
2022-09-27T22:51:31.958Z,14.27
2022-09-27T22:53:59.392Z,13.13
2022-09-27T22:56:26.651Z,14.80
2022-09-27T22:58:53.997Z,13.95
2022-09-27T23:01:24.886Z,14.73
2022-09-27T23:03:54.336Z,13.75
2022-09-27T23:06:23.201Z,13.73
2022-09-27T23:08:53.700Z,14.68
2022-09-27T23:11:23.315Z,14.48
2022-09-27T23:13:52.104Z,14.55
2022-09-27T23:16:24.780Z,14.45
2022-09-27T23:18:57.027Z,13.18
2022-09-27T23:21:26.415Z,14.25
2022-09-27T23:23:59.899Z,13.60
2022-09-27T23:26:29.310Z,15.50
2022-09-27T23:28:59.994Z,16.67
2022-09-27T23:31:31.440Z,15.30
2022-09-27T23:34:03.542Z,14.75
2022-09-27T23:36:31.032Z,14.80
2022-09-27T23:39:00.986Z,14.75
2022-09-27T23:41:28.656Z,15.00
2022-09-27T23:43:57.646Z,13.65
2022-09-27T23:46:25.323Z,13.13
2022-09-27T23:48:55.593Z,13.23
2022-09-27T23:51:22.789Z,13.10
2022-09-27T23:53:50.134Z,11.77
2022-09-27T23:56:17.757Z,11.48
2022-09-27T23:58:46.393Z,11.05
